sensor_id;sensor_type;location;lat;lon;timestamp;P1;durP1;ratioP1;P2;durP2;ratioP2
3034;SDS011;1527;48.836;9.172;2022-09-12T00:01:39;10.50;;;9.43;;
3034;SDS011;1527;48.836;9.172;2022-09-12T00:04:08;10.30;;;9.05;;
3034;SDS011;1527;48.836;9.172;2022-09-12T00:06:38;12.50;;;8.80;;
3034;SDS011;1527;48.836;9.172;2022-09-12T00:09:09;11.23;;;8.95;;
3034;SDS011;1527;48.836;9.172;2022-09-12T00:11:41;12.27;;;9.48;;
3034;SDS011;1527;48.836;9.172;2022-09-12T00:14:13;10.60;;;9.32;;
3034;SDS011;1527;48.836;9.172;2022-09-12T00:16:45;10.25;;;8.38;;
3034;SDS011;1527;48.836;9.172;2022-09-12T00:19:14;10.25;;;9.15;;
3034;SDS011;1527;48.836;9.172;2022-09-12T00:21:44;11.45;;;9.63;;
3034;SDS011;1527;48.836;9.172;2022-09-12T00:24:13;11.70;;;9.48;;
3034;SDS011;1527;48.836;9.172;2022-09-12T00:26:42;11.10;;;9.90;;
3034;SDS011;1527;48.836;9.172;2022-09-12T00:29:15;9.32;;;8.43;;
3034;SDS011;1527;48.836;9.172;2022-09-12T00:31:45;10.70;;;9.60;;
3034;SDS011;1527;48.836;9.172;2022-09-12T00:34:15;11.82;;;9.75;;
3034;SDS011;1527;48.836;9.172;2022-09-12T00:36:44;10.10;;;9.18;;
3034;SDS011;1527;48.836;9.172;2022-09-12T00:39:13;8.73;;;7.90;;
3034;SDS011;1527;48.836;9.172;2022-09-12T00:41:44;9.70;;;8.70;;
3034;SDS011;1527;48.836;9.172;2022-09-12T00:47:16;10.85;;;9.80;;
3034;SDS011;1527;48.836;9.172;2022-09-12T00:49:51;10.80;;;9.73;;
3034;SDS011;1527;48.836;9.172;2022-09-12T00:52:27;14.85;;;9.10;;
3034;SDS011;1527;48.836;9.172;2022-09-12T00:55:02;12.82;;;9.90;;
3034;SDS011;1527;48.836;9.172;2022-09-12T00:57:37;11.77;;;9.63;;
3034;SDS011;1527;48.836;9.172;2022-09-12T01:00:14;11.00;;;9.10;;
3034;SDS011;1527;48.836;9.172;2022-09-12T01:02:47;10.45;;;9.40;;
3034;SDS011;1527;48.836;9.172;2022-09-12T01:05:21;10.90;;;9.77;;
3034;SDS011;1527;48.836;9.172;2022-09-12T01:07:52;11.35;;;9.02;;
3034;SDS011;1527;48.836;9.172;2022-09-12T01:10:23;10.50;;;9.50;;
3034;SDS011;1527;48.836;9.172;2022-09-12T01:12:52;10.73;;;8.85;;
3034;SDS011;1527;48.836;9.172;2022-09-12T01:15:22;12.57;;;8.48;;
3034;SDS011;1527;48.836;9.172;2022-09-12T01:17:55;10.90;;;9.80;;
3034;SDS011;1527;48.836;9.172;2022-09-12T01:27:03;10.43;;;9.43;;
3034;SDS011;1527;48.836;9.172;2022-09-12T01:30:03;10.48;;;9.48;;
3034;SDS011;1527;48.836;9.172;2022-09-12T01:32:58;14.00;;;9.38;;
3034;SDS011;1527;48.836;9.172;2022-09-12T01:39:11;10.07;;;9.00;;
3034;SDS011;1527;48.836;9.172;2022-09-12T01:41:53;9.70;;;8.68;;
3034;SDS011;1527;48.836;9.172;2022-09-12T01:44:38;9.48;;;8.23;;
3034;SDS011;1527;48.836;9.172;2022-09-12T01:47:16;10.35;;;9.35;;
3034;SDS011;1527;48.836;9.172;2022-09-12T01:49:51;13.30;;;9.07;;
3034;SDS011;1527;48.836;9.172;2022-09-12T01:52:28;10.23;;;9.20;;
3034;SDS011;1527;48.836;9.172;2022-09-12T01:55:05;10.30;;;9.20;;
3034;SDS011;1527;48.836;9.172;2022-09-12T01:57:42;13.73;;;9.65;;
3034;SDS011;1527;48.836;9.172;2022-09-12T02:00:16;9.68;;;8.27;;
3034;SDS011;1527;48.836;9.172;2022-09-12T02:02:48;12.45;;;9.25;;
3034;SDS011;1527;48.836;9.172;2022-09-12T02:05:22;9.68;;;8.18;;
3034;SDS011;1527;48.836;9.172;2022-09-12T02:07:58;11.65;;;9.10;;
3034;SDS011;1527;48.836;9.172;2022-09-12T02:10:35;13.45;;;9.00;;
3034;SDS011;1527;48.836;9.172;2022-09-12T02:13:11;9.77;;;8.55;;
3034;SDS011;1527;48.836;9.172;2022-09-12T02:15:46;10.70;;;9.27;;
3034;SDS011;1527;48.836;9.172;2022-09-12T02:18:21;9.73;;;8.73;;
3034;SDS011;1527;48.836;9.172;2022-09-12T02:20:53;9.57;;;8.57;;
3034;SDS011;1527;48.836;9.172;2022-09-12T02:23:25;10.13;;;9.05;;
3034;SDS011;1527;48.836;9.172;2022-09-12T02:25:59;12.15;;;8.65;;
3034;SDS011;1527;48.836;9.172;2022-09-12T02:28:32;11.88;;;9.43;;
3034;SDS011;1527;48.836;9.172;2022-09-12T02:31:07;10.90;;;9.70;;
3034;SDS011;1527;48.836;9.172;2022-09-12T02:33:49;11.00;;;9.00;;
3034;SDS011;1527;48.836;9.172;2022-09-12T02:36:31;10.07;;;7.90;;
3034;SDS011;1527;48.836;9.172;2022-09-12T02:39:09;14.68;;;9.85;;
3034;SDS011;1527;48.836;9.172;2022-09-12T02:41:38;11.45;;;9.95;;
3034;SDS011;1527;48.836;9.172;2022-09-12T02:44:07;10.50;;;9.50;;
3034;SDS011;1527;48.836;9.172;2022-09-12T02:46:37;10.20;;;9.18;;
3034;SDS011;1527;48.836;9.172;2022-09-12T02:49:11;11.52;;;8.95;;
3034;SDS011;1527;48.836;9.172;2022-09-12T02:51:40;10.07;;;9.05;;
3034;SDS011;1527;48.836;9.172;2022-09-12T02:54:10;10.95;;;9.80;;
3034;SDS011;1527;48.836;9.172;2022-09-12T02:56:41;10.48;;;9.38;;
3034;SDS011;1527;48.836;9.172;2022-09-12T02:59:12;14.80;;;9.70;;
3034;SDS011;1527;48.836;9.172;2022-09-12T03:01:48;14.30;;;10.52;;
3034;SDS011;1527;48.836;9.172;2022-09-12T03:04:39;11.02;;;9.75;;
3034;SDS011;1527;48.836;9.172;2022-09-12T03:07:54;12.00;;;10.30;;
3034;SDS011;1527;48.836;9.172;2022-09-12T03:10:53;13.20;;;9.90;;
3034;SDS011;1527;48.836;9.172;2022-09-12T03:13:56;11.68;;;9.48;;
3034;SDS011;1527;48.836;9.172;2022-09-12T03:16:38;11.15;;;10.05;;
3034;SDS011;1527;48.836;9.172;2022-09-12T03:19:16;10.48;;;9.45;;
3034;SDS011;1527;48.836;9.172;2022-09-12T03:21:59;11.25;;;10.10;;
3034;SDS011;1527;48.836;9.172;2022-09-12T03:24:36;10.63;;;9.63;;
3034;SDS011;1527;48.836;9.172;2022-09-12T03:27:11;11.93;;;10.27;;
3034;SDS011;1527;48.836;9.172;2022-09-12T03:29:45;11.02;;;9.68;;
3034;SDS011;1527;48.836;9.172;2022-09-12T03:32:16;12.07;;;9.23;;
3034;SDS011;1527;48.836;9.172;2022-09-12T03:34:45;11.48;;;10.25;;
3034;SDS011;1527;48.836;9.172;2022-09-12T03:37:16;11.32;;;10.20;;
3034;SDS011;1527;48.836;9.172;2022-09-12T03:39:45;12.75;;;10.45;;
3034;SDS011;1527;48.836;9.172;2022-09-12T03:42:14;11.05;;;9.40;;
3034;SDS011;1527;48.836;9.172;2022-09-12T03:44:43;14.48;;;10.70;;
3034;SDS011;1527;48.836;9.172;2022-09-12T03:47:12;11.20;;;9.55;;
3034;SDS011;1527;48.836;9.172;2022-09-12T03:49:42;12.43;;;10.52;;
3034;SDS011;1527;48.836;9.172;2022-09-12T03:52:11;13.88;;;10.23;;
3034;SDS011;1527;48.836;9.172;2022-09-12T03:54:42;10.23;;;8.93;;
3034;SDS011;1527;48.836;9.172;2022-09-12T03:57:12;12.85;;;10.40;;
3034;SDS011;1527;48.836;9.172;2022-09-12T03:59:42;11.15;;;10.00;;
3034;SDS011;1527;48.836;9.172;2022-09-12T04:02:15;12.80;;;10.40;;
3034;SDS011;1527;48.836;9.172;2022-09-12T04:04:45;15.05;;;9.90;;
3034;SDS011;1527;48.836;9.172;2022-09-12T04:07:15;10.48;;;9.40;;
3034;SDS011;1527;48.836;9.172;2022-09-12T04:09:46;9.77;;;8.77;;
3034;SDS011;1527;48.836;9.172;2022-09-12T04:12:16;13.05;;;10.95;;
3034;SDS011;1527;48.836;9.172;2022-09-12T04:14:46;13.20;;;11.23;;
3034;SDS011;1527;48.836;9.172;2022-09-12T04:17:15;10.82;;;9.73;;
3034;SDS011;1527;48.836;9.172;2022-09-12T04:19:44;11.82;;;10.30;;
3034;SDS011;1527;48.836;9.172;2022-09-12T04:22:13;15.05;;;10.00;;
3034;SDS011;1527;48.836;9.172;2022-09-12T04:24:43;13.63;;;9.88;;
3034;SDS011;1527;48.836;9.172;2022-09-12T04:27:13;13.15;;;10.07;;
3034;SDS011;1527;48.836;9.172;2022-09-12T04:29:43;11.27;;;9.75;;
3034;SDS011;1527;48.836;9.172;2022-09-12T04:32:12;10.50;;;9.00;;
3034;SDS011;1527;48.836;9.172;2022-09-12T04:34:41;11.30;;;9.85;;
3034;SDS011;1527;48.836;9.172;2022-09-12T04:37:12;13.13;;;10.50;;
3034;SDS011;1527;48.836;9.172;2022-09-12T04:39:41;11.52;;;10.32;;
3034;SDS011;1527;48.836;9.172;2022-09-12T04:42:10;11.65;;;10.40;;
3034;SDS011;1527;48.836;9.172;2022-09-12T04:44:40;11.02;;;9.88;;
3034;SDS011;1527;48.836;9.172;2022-09-12T04:47:09;12.93;;;10.35;;
3034;SDS011;1527;48.836;9.172;2022-09-12T04:49:38;10.98;;;9.52;;
3034;SDS011;1527;48.836;9.172;2022-09-12T04:52:07;11.63;;;9.73;;
3034;SDS011;1527;48.836;9.172;2022-09-12T04:54:37;12.05;;;10.07;;
3034;SDS011;1527;48.836;9.172;2022-09-12T04:57:06;12.95;;;10.82;;
3034;SDS011;1527;48.836;9.172;2022-09-12T04:59:35;14.48;;;10.30;;
3034;SDS011;1527;48.836;9.172;2022-09-12T05:02:06;14.18;;;10.80;;
3034;SDS011;1527;48.836;9.172;2022-09-12T05:04:35;13.73;;;10.57;;
3034;SDS011;1527;48.836;9.172;2022-09-12T05:07:04;13.05;;;11.00;;
3034;SDS011;1527;48.836;9.172;2022-09-12T05:09:33;14.10;;;10.60;;
3034;SDS011;1527;48.836;9.172;2022-09-12T05:12:02;19.30;;;11.18;;
3034;SDS011;1527;48.836;9.172;2022-09-12T05:14:33;13.35;;;10.63;;
3034;SDS011;1527;48.836;9.172;2022-09-12T05:17:02;11.63;;;10.43;;
3034;SDS011;1527;48.836;9.172;2022-09-12T05:19:36;14.73;;;10.07;;
3034;SDS011;1527;48.836;9.172;2022-09-12T05:22:06;12.27;;;10.05;;
3034;SDS011;1527;48.836;9.172;2022-09-12T05:24:35;12.82;;;10.95;;
3034;SDS011;1527;48.836;9.172;2022-09-12T05:27:05;12.48;;;11.15;;
3034;SDS011;1527;48.836;9.172;2022-09-12T05:29:34;12.23;;;10.65;;
3034;SDS011;1527;48.836;9.172;2022-09-12T05:32:03;17.90;;;12.85;;
3034;SDS011;1527;48.836;9.172;2022-09-12T05:34:32;13.50;;;10.80;;
3034;SDS011;1527;48.836;9.172;2022-09-12T05:37:05;16.52;;;11.02;;
3034;SDS011;1527;48.836;9.172;2022-09-12T05:39:34;12.75;;;11.45;;
3034;SDS011;1527;48.836;9.172;2022-09-12T05:42:04;12.10;;;10.80;;
3034;SDS011;1527;48.836;9.172;2022-09-12T05:44:33;16.42;;;12.07;;
3034;SDS011;1527;48.836;9.172;2022-09-12T05:47:03;11.68;;;10.48;;
3034;SDS011;1527;48.836;9.172;2022-09-12T05:49:32;14.00;;;11.07;;
3034;SDS011;1527;48.836;9.172;2022-09-12T05:52:03;12.82;;;10.43;;
3034;SDS011;1527;48.836;9.172;2022-09-12T05:54:33;10.13;;;9.07;;
3034;SDS011;1527;48.836;9.172;2022-09-12T05:57:02;15.90;;;8.80;;
3034;SDS011;1527;48.836;9.172;2022-09-12T05:59:32;12.48;;;10.25;;
3034;SDS011;1527;48.836;9.172;2022-09-12T06:02:01;12.02;;;9.95;;
3034;SDS011;1527;48.836;9.172;2022-09-12T06:04:30;12.82;;;9.85;;
3034;SDS011;1527;48.836;9.172;2022-09-12T06:07:00;13.30;;;10.98;;
3034;SDS011;1527;48.836;9.172;2022-09-12T06:09:29;12.52;;;10.93;;
3034;SDS011;1527;48.836;9.172;2022-09-12T06:12:00;19.48;;;11.45;;
3034;SDS011;1527;48.836;9.172;2022-09-12T06:14:29;11.73;;;10.25;;
3034;SDS011;1527;48.836;9.172;2022-09-12T06:16:59;13.18;;;11.77;;
3034;SDS011;1527;48.836;9.172;2022-09-12T06:19:28;15.05;;;12.30;;
3034;SDS011;1527;48.836;9.172;2022-09-12T06:21:57;19.92;;;12.63;;
3034;SDS011;1527;48.836;9.172;2022-09-12T06:24:27;12.15;;;10.57;;
3034;SDS011;1527;48.836;9.172;2022-09-12T06:26:57;12.50;;;11.15;;
3034;SDS011;1527;48.836;9.172;2022-09-12T06:29:27;11.38;;;10.30;;
3034;SDS011;1527;48.836;9.172;2022-09-12T06:31:58;13.05;;;10.93;;
3034;SDS011;1527;48.836;9.172;2022-09-12T06:34:28;12.40;;;11.10;;
3034;SDS011;1527;48.836;9.172;2022-09-12T06:37:00;17.73;;;11.70;;
3034;SDS011;1527;48.836;9.172;2022-09-12T06:39:30;21.42;;;10.95;;
3034;SDS011;1527;48.836;9.172;2022-09-12T06:41:59;12.55;;;11.35;;
3034;SDS011;1527;48.836;9.172;2022-09-12T06:44:36;14.10;;;11.13;;
3034;SDS011;1527;48.836;9.172;2022-09-12T06:47:06;17.13;;;11.23;;
3034;SDS011;1527;48.836;9.172;2022-09-12T06:49:35;16.60;;;11.35;;
3034;SDS011;1527;48.836;9.172;2022-09-12T06:52:04;14.07;;;11.60;;
3034;SDS011;1527;48.836;9.172;2022-09-12T06:54:35;12.02;;;10.73;;
3034;SDS011;1527;48.836;9.172;2022-09-12T06:57:04;12.70;;;10.80;;
3034;SDS011;1527;48.836;9.172;2022-09-12T06:59:33;14.43;;;12.23;;
3034;SDS011;1527;48.836;9.172;2022-09-12T07:02:08;16.30;;;11.88;;
3034;SDS011;1527;48.836;9.172;2022-09-12T07:04:38;15.55;;;12.95;;
3034;SDS011;1527;48.836;9.172;2022-09-12T07:07:07;15.57;;;12.65;;
3034;SDS011;1527;48.836;9.172;2022-09-12T07:09:37;13.25;;;11.85;;
3034;SDS011;1527;48.836;9.172;2022-09-12T07:12:06;16.67;;;13.65;;
3034;SDS011;1527;48.836;9.172;2022-09-12T07:14:36;14.88;;;13.38;;
3034;SDS011;1527;48.836;9.172;2022-09-12T07:17:06;16.30;;;12.25;;
3034;SDS011;1527;48.836;9.172;2022-09-12T07:19:35;14.50;;;12.25;;
3034;SDS011;1527;48.836;9.172;2022-09-12T07:22:04;18.35;;;11.95;;
3034;SDS011;1527;48.836;9.172;2022-09-12T07:24:34;14.30;;;12.88;;
3034;SDS011;1527;48.836;9.172;2022-09-12T07:27:03;13.93;;;11.55;;
3034;SDS011;1527;48.836;9.172;2022-09-12T07:29:32;14.82;;;13.32;;
3034;SDS011;1527;48.836;9.172;2022-09-12T07:32:05;15.70;;;12.60;;
3034;SDS011;1527;48.836;9.172;2022-09-12T07:34:36;15.85;;;12.73;;
3034;SDS011;1527;48.836;9.172;2022-09-12T07:37:05;13.10;;;11.80;;
3034;SDS011;1527;48.836;9.172;2022-09-12T07:39:34;15.43;;;12.35;;
3034;SDS011;1527;48.836;9.172;2022-09-12T07:42:05;15.85;;;12.25;;
3034;SDS011;1527;48.836;9.172;2022-09-12T07:44:34;22.15;;;14.07;;
3034;SDS011;1527;48.836;9.172;2022-09-12T07:47:05;13.27;;;11.35;;
3034;SDS011;1527;48.836;9.172;2022-09-12T07:49:35;17.17;;;13.02;;
3034;SDS011;1527;48.836;9.172;2022-09-12T07:52:04;13.70;;;12.27;;
3034;SDS011;1527;48.836;9.172;2022-09-12T07:54:33;14.98;;;12.57;;
3034;SDS011;1527;48.836;9.172;2022-09-12T07:57:02;11.88;;;10.43;;
3034;SDS011;1527;48.836;9.172;2022-09-12T07:59:31;19.67;;;11.63;;
3034;SDS011;1527;48.836;9.172;2022-09-12T08:02:20;13.18;;;11.63;;
3034;SDS011;1527;48.836;9.172;2022-09-12T08:04:49;12.48;;;11.25;;
3034;SDS011;1527;48.836;9.172;2022-09-12T08:07:19;11.90;;;10.70;;
3034;SDS011;1527;48.836;9.172;2022-09-12T08:09:48;12.10;;;10.77;;
3034;SDS011;1527;48.836;9.172;2022-09-12T08:12:17;11.60;;;10.43;;
3034;SDS011;1527;48.836;9.172;2022-09-12T08:14:46;12.77;;;11.30;;
3034;SDS011;1527;48.836;9.172;2022-09-12T08:17:15;11.25;;;10.23;;
3034;SDS011;1527;48.836;9.172;2022-09-12T08:19:45;11.40;;;9.27;;
3034;SDS011;1527;48.836;9.172;2022-09-12T08:22:15;10.52;;;8.80;;
3034;SDS011;1527;48.836;9.172;2022-09-12T08:24:47;10.30;;;9.32;;
3034;SDS011;1527;48.836;9.172;2022-09-12T08:27:17;10.57;;;9.15;;
3034;SDS011;1527;48.836;9.172;2022-09-12T08:29:46;10.10;;;8.55;;
3034;SDS011;1527;48.836;9.172;2022-09-12T08:32:15;11.13;;;9.73;;
3034;SDS011;1527;48.836;9.172;2022-09-12T08:34:45;10.55;;;9.45;;
3034;SDS011;1527;48.836;9.172;2022-09-12T08:37:14;11.23;;;8.50;;
3034;SDS011;1527;48.836;9.172;2022-09-12T08:39:43;13.85;;;8.85;;
3034;SDS011;1527;48.836;9.172;2022-09-12T08:42:15;10.05;;;8.50;;
3034;SDS011;1527;48.836;9.172;2022-09-12T08:44:55;9.70;;;8.00;;
3034;SDS011;1527;48.836;9.172;2022-09-12T08:47:35;9.73;;;8.70;;
3034;SDS011;1527;48.836;9.172;2022-09-12T08:50:11;16.15;;;8.05;;
3034;SDS011;1527;48.836;9.172;2022-09-12T08:52:48;10.55;;;8.10;;
3034;SDS011;1527;48.836;9.172;2022-09-12T08:55:26;8.90;;;7.25;;
3034;SDS011;1527;48.836;9.172;2022-09-12T08:58:03;8.30;;;6.25;;
3034;SDS011;1527;48.836;9.172;2022-09-12T09:00:42;7.80;;;7.10;;
3034;SDS011;1527;48.836;9.172;2022-09-12T09:03:34;6.97;;;6.28;;
3034;SDS011;1527;48.836;9.172;2022-09-12T09:06:41;6.22;;;5.63;;
3034;SDS011;1527;48.836;9.172;2022-09-12T09:09:37;6.43;;;5.43;;
3034;SDS011;1527;48.836;9.172;2022-09-12T09:12:20;5.78;;;5.20;;
3034;SDS011;1527;48.836;9.172;2022-09-12T09:15:16;5.60;;;5.10;;
3034;SDS011;1527;48.836;9.172;2022-09-12T09:18:09;4.88;;;4.47;;
3034;SDS011;1527;48.836;9.172;2022-09-12T09:20:45;5.40;;;4.90;;
3034;SDS011;1527;48.836;9.172;2022-09-12T09:23:21;5.38;;;4.97;;
3034;SDS011;1527;48.836;9.172;2022-09-12T09:25:56;4.30;;;4.00;;
3034;SDS011;1527;48.836;9.172;2022-09-12T09:28:30;4.50;;;4.05;;
3034;SDS011;1527;48.836;9.172;2022-09-12T09:31:08;4.25;;;3.95;;
3034;SDS011;1527;48.836;9.172;2022-09-12T09:33:42;4.53;;;4.13;;
3034;SDS011;1527;48.836;9.172;2022-09-12T09:36:15;4.70;;;4.00;;
3034;SDS011;1527;48.836;9.172;2022-09-12T09:38:52;3.60;;;3.30;;
3034;SDS011;1527;48.836;9.172;2022-09-12T09:41:32;5.68;;;4.13;;
3034;SDS011;1527;48.836;9.172;2022-09-12T09:44:12;4.20;;;3.78;;
3034;SDS011;1527;48.836;9.172;2022-09-12T09:46:41;4.43;;;3.75;;
3034;SDS011;1527;48.836;9.172;2022-09-12T09:49:11;4.53;;;4.13;;
3034;SDS011;1527;48.836;9.172;2022-09-12T09:51:42;3.80;;;3.50;;
3034;SDS011;1527;48.836;9.172;2022-09-12T09:54:16;3.88;;;3.58;;
3034;SDS011;1527;48.836;9.172;2022-09-12T09:56:49;4.88;;;4.20;;
3034;SDS011;1527;48.836;9.172;2022-09-12T09:59:19;4.70;;;3.60;;
3034;SDS011;1527;48.836;9.172;2022-09-12T10:01:58;3.92;;;3.60;;
3034;SDS011;1527;48.836;9.172;2022-09-12T10:04:30;4.32;;;3.90;;
3034;SDS011;1527;48.836;9.172;2022-09-12T10:07:11;3.97;;;3.67;;
3034;SDS011;1527;48.836;9.172;2022-09-12T10:12:41;3.80;;;3.50;;
3034;SDS011;1527;48.836;9.172;2022-09-12T10:15:15;3.75;;;3.50;;
3034;SDS011;1527;48.836;9.172;2022-09-12T10:17:47;4.25;;;3.85;;
3034;SDS011;1527;48.836;9.172;2022-09-12T10:20:31;4.57;;;4.18;;
3034;SDS011;1527;48.836;9.172;2022-09-12T10:23:06;4.88;;;4.45;;
3034;SDS011;1527;48.836;9.172;2022-09-12T10:26:01;4.32;;;3.92;;
3034;SDS011;1527;48.836;9.172;2022-09-12T10:28:37;3.70;;;3.40;;
3034;SDS011;1527;48.836;9.172;2022-09-12T10:31:12;5.20;;;3.85;;
3034;SDS011;1527;48.836;9.172;2022-09-12T10:33:45;3.63;;;3.15;;
3034;SDS011;1527;48.836;9.172;2022-09-12T10:36:18;3.63;;;3.27;;
3034;SDS011;1527;48.836;9.172;2022-09-12T10:38:48;5.47;;;3.70;;
3034;SDS011;1527;48.836;9.172;2022-09-12T10:41:22;6.80;;;3.30;;
3034;SDS011;1527;48.836;9.172;2022-09-12T10:43:51;4.70;;;4.20;;
3034;SDS011;1527;48.836;9.172;2022-09-12T10:46:34;4.63;;;4.20;;
3034;SDS011;1527;48.836;9.172;2022-09-12T10:52:14;4.03;;;3.72;;
3034;SDS011;1527;48.836;9.172;2022-09-12T10:54:45;5.73;;;3.27;;
3034;SDS011;1527;48.836;9.172;2022-09-12T10:57:29;3.40;;;3.10;;
3034;SDS011;1527;48.836;9.172;2022-09-12T11:00:27;5.57;;;3.10;;
3034;SDS011;1527;48.836;9.172;2022-09-12T11:03:01;3.77;;;3.47;;
3034;SDS011;1527;48.836;9.172;2022-09-12T11:05:48;3.00;;;2.60;;
3034;SDS011;1527;48.836;9.172;2022-09-12T11:08:28;2.65;;;2.45;;
3034;SDS011;1527;48.836;9.172;2022-09-12T11:11:26;3.47;;;3.17;;
3034;SDS011;1527;48.836;9.172;2022-09-12T11:14:18;4.20;;;2.70;;
3034;SDS011;1527;48.836;9.172;2022-09-12T11:17:05;4.90;;;3.07;;
3034;SDS011;1527;48.836;9.172;2022-09-12T11:23:02;2.50;;;2.30;;
3034;SDS011;1527;48.836;9.172;2022-09-12T11:25:58;2.57;;;2.37;;
3034;SDS011;1527;48.836;9.172;2022-09-12T11:28:42;2.93;;;2.53;;
3034;SDS011;1527;48.836;9.172;2022-09-12T11:31:29;2.77;;;2.47;;
3034;SDS011;1527;48.836;9.172;2022-09-12T11:34:19;3.10;;;2.40;;
3034;SDS011;1527;48.836;9.172;2022-09-12T11:37:07;2.17;;;1.97;;
3034;SDS011;1527;48.836;9.172;2022-09-12T11:39:58;2.30;;;2.20;;
3034;SDS011;1527;48.836;9.172;2022-09-12T11:42:35;2.87;;;2.60;;
3034;SDS011;1527;48.836;9.172;2022-09-12T11:45:11;4.93;;;2.53;;
3034;SDS011;1527;48.836;9.172;2022-09-12T11:47:47;2.60;;;2.37;;
3034;SDS011;1527;48.836;9.172;2022-09-12T11:50:20;2.33;;;2.20;;
3034;SDS011;1527;48.836;9.172;2022-09-12T11:52:56;2.20;;;2.10;;
3034;SDS011;1527;48.836;9.172;2022-09-12T11:55:43;3.30;;;2.60;;
3034;SDS011;1527;48.836;9.172;2022-09-12T11:58:21;2.30;;;2.10;;
3034;SDS011;1527;48.836;9.172;2022-09-12T12:00:56;2.40;;;2.20;;
3034;SDS011;1527;48.836;9.172;2022-09-12T12:03:42;2.73;;;2.50;;
3034;SDS011;1527;48.836;9.172;2022-09-12T12:06:15;2.53;;;2.33;;
3034;SDS011;1527;48.836;9.172;2022-09-12T12:08:46;2.60;;;2.40;;
3034;SDS011;1527;48.836;9.172;2022-09-12T12:11:24;2.83;;;2.63;;
3034;SDS011;1527;48.836;9.172;2022-09-12T12:13:58;2.50;;;2.30;;
3034;SDS011;1527;48.836;9.172;2022-09-12T12:16:31;2.40;;;2.20;;
3034;SDS011;1527;48.836;9.172;2022-09-12T12:19:05;2.20;;;2.10;;
3034;SDS011;1527;48.836;9.172;2022-09-12T12:22:02;2.83;;;2.23;;
3034;SDS011;1527;48.836;9.172;2022-09-12T12:24:34;2.67;;;2.20;;
3034;SDS011;1527;48.836;9.172;2022-09-12T12:27:24;2.10;;;1.90;;
3034;SDS011;1527;48.836;9.172;2022-09-12T12:36:37;4.10;;;2.10;;
3034;SDS011;1527;48.836;9.172;2022-09-12T12:45:44;2.03;;;1.90;;
3034;SDS011;1527;48.836;9.172;2022-09-12T12:51:44;1.83;;;1.73;;
3034;SDS011;1527;48.836;9.172;2022-09-12T12:54:26;2.60;;;2.30;;
3034;SDS011;1527;48.836;9.172;2022-09-12T12:57:02;3.97;;;2.70;;
3034;SDS011;1527;48.836;9.172;2022-09-12T12:59:45;2.97;;;2.00;;
3034;SDS011;1527;48.836;9.172;2022-09-12T13:02:21;2.50;;;2.17;;
3034;SDS011;1527;48.836;9.172;2022-09-12T13:04:57;2.50;;;2.30;;
3034;SDS011;1527;48.836;9.172;2022-09-12T13:07:33;4.63;;;2.00;;
3034;SDS011;1527;48.836;9.172;2022-09-12T13:10:06;2.20;;;2.00;;
3034;SDS011;1527;48.836;9.172;2022-09-12T13:12:36;2.20;;;2.03;;
3034;SDS011;1527;48.836;9.172;2022-09-12T13:18:18;2.30;;;2.17;;
3034;SDS011;1527;48.836;9.172;2022-09-12T13:20:55;2.90;;;1.80;;
3034;SDS011;1527;48.836;9.172;2022-09-12T13:23:36;1.90;;;1.80;;
3034;SDS011;1527;48.836;9.172;2022-09-12T13:26:09;1.90;;;1.80;;
3034;SDS011;1527;48.836;9.172;2022-09-12T13:28:40;1.83;;;1.73;;
3034;SDS011;1527;48.836;9.172;2022-09-12T13:31:10;1.60;;;1.50;;
3034;SDS011;1527;48.836;9.172;2022-09-12T13:33:48;2.17;;;1.60;;
3034;SDS011;1527;48.836;9.172;2022-09-12T13:36:26;1.97;;;1.87;;
3034;SDS011;1527;48.836;9.172;2022-09-12T13:39:19;2.00;;;1.90;;
3034;SDS011;1527;48.836;9.172;2022-09-12T13:42:07;2.90;;;1.70;;
3034;SDS011;1527;48.836;9.172;2022-09-12T13:45:10;2.40;;;1.83;;
3034;SDS011;1527;48.836;9.172;2022-09-12T13:47:43;1.90;;;1.80;;
3034;SDS011;1527;48.836;9.172;2022-09-12T13:50:15;2.00;;;1.90;;
3034;SDS011;1527;48.836;9.172;2022-09-12T13:52:49;2.07;;;1.97;;
3034;SDS011;1527;48.836;9.172;2022-09-12T13:55:28;2.30;;;2.10;;
3034;SDS011;1527;48.836;9.172;2022-09-12T13:58:05;2.43;;;2.23;;
3034;SDS011;1527;48.836;9.172;2022-09-12T14:01:01;2.00;;;1.90;;
3034;SDS011;1527;48.836;9.172;2022-09-12T14:03:38;2.03;;;1.87;;
3034;SDS011;1527;48.836;9.172;2022-09-12T14:06:38;1.93;;;1.83;;
3034;SDS011;1527;48.836;9.172;2022-09-12T14:09:20;2.17;;;2.07;;
3034;SDS011;1527;48.836;9.172;2022-09-12T14:11:57;4.77;;;1.80;;
3034;SDS011;1527;48.836;9.172;2022-09-12T14:14:31;1.93;;;1.83;;
3034;SDS011;1527;48.836;9.172;2022-09-12T14:17:13;2.67;;;2.10;;
3034;SDS011;1527;48.836;9.172;2022-09-12T14:19:49;2.40;;;1.93;;
3034;SDS011;1527;48.836;9.172;2022-09-12T14:22:19;3.40;;;1.90;;
3034;SDS011;1527;48.836;9.172;2022-09-12T14:24:49;1.70;;;1.60;;
3034;SDS011;1527;48.836;9.172;2022-09-12T14:27:21;2.50;;;1.80;;
3034;SDS011;1527;48.836;9.172;2022-09-12T14:29:56;1.97;;;1.77;;
3034;SDS011;1527;48.836;9.172;2022-09-12T14:32:30;2.13;;;1.93;;
3034;SDS011;1527;48.836;9.172;2022-09-12T14:35:03;3.90;;;3.33;;
3034;SDS011;1527;48.836;9.172;2022-09-12T14:37:47;1.77;;;1.67;;
3034;SDS011;1527;48.836;9.172;2022-09-12T14:40:19;2.63;;;1.70;;
3034;SDS011;1527;48.836;9.172;2022-09-12T14:42:51;1.83;;;1.70;;
3034;SDS011;1527;48.836;9.172;2022-09-12T14:45:27;2.23;;;2.00;;
3034;SDS011;1527;48.836;9.172;2022-09-12T14:47:58;2.37;;;2.00;;
3034;SDS011;1527;48.836;9.172;2022-09-12T14:50:28;1.77;;;1.67;;
3034;SDS011;1527;48.836;9.172;2022-09-12T14:53:04;1.87;;;1.77;;
3034;SDS011;1527;48.836;9.172;2022-09-12T14:55:40;1.90;;;1.80;;
3034;SDS011;1527;48.836;9.172;2022-09-12T14:58:22;2.20;;;2.10;;
3034;SDS011;1527;48.836;9.172;2022-09-12T15:00:54;1.70;;;1.60;;
3034;SDS011;1527;48.836;9.172;2022-09-12T15:03:28;2.30;;;2.10;;
3034;SDS011;1527;48.836;9.172;2022-09-12T15:06:00;2.07;;;1.87;;
3034;SDS011;1527;48.836;9.172;2022-09-12T15:08:31;3.80;;;1.70;;
3034;SDS011;1527;48.836;9.172;2022-09-12T15:11:00;1.80;;;1.70;;
3034;SDS011;1527;48.836;9.172;2022-09-12T15:13:37;1.50;;;1.40;;
3034;SDS011;1527;48.836;9.172;2022-09-12T15:16:09;2.00;;;1.90;;
3034;SDS011;1527;48.836;9.172;2022-09-12T15:18:39;2.57;;;2.37;;
3034;SDS011;1527;48.836;9.172;2022-09-12T15:21:10;2.13;;;1.93;;
3034;SDS011;1527;48.836;9.172;2022-09-12T15:23:43;1.57;;;1.47;;
3034;SDS011;1527;48.836;9.172;2022-09-12T15:26:17;1.90;;;1.80;;
3034;SDS011;1527;48.836;9.172;2022-09-12T15:28:50;1.93;;;1.50;;
3034;SDS011;1527;48.836;9.172;2022-09-12T15:31:21;2.07;;;1.87;;
3034;SDS011;1527;48.836;9.172;2022-09-12T15:33:53;2.00;;;1.80;;
3034;SDS011;1527;48.836;9.172;2022-09-12T15:36:24;1.77;;;1.67;;
3034;SDS011;1527;48.836;9.172;2022-09-12T15:38:54;1.90;;;1.80;;
3034;SDS011;1527;48.836;9.172;2022-09-12T15:41:26;2.20;;;2.00;;
3034;SDS011;1527;48.836;9.172;2022-09-12T15:44:00;1.80;;;1.70;;
3034;SDS011;1527;48.836;9.172;2022-09-12T15:46:36;2.10;;;2.00;;
3034;SDS011;1527;48.836;9.172;2022-09-12T15:49:06;2.17;;;1.70;;
3034;SDS011;1527;48.836;9.172;2022-09-12T15:51:36;1.80;;;1.70;;
3034;SDS011;1527;48.836;9.172;2022-09-12T15:54:08;2.00;;;1.90;;
3034;SDS011;1527;48.836;9.172;2022-09-12T15:56:40;1.80;;;1.70;;
3034;SDS011;1527;48.836;9.172;2022-09-12T15:59:11;1.70;;;1.60;;
3034;SDS011;1527;48.836;9.172;2022-09-12T16:01:40;2.00;;;1.90;;
3034;SDS011;1527;48.836;9.172;2022-09-12T16:04:17;1.97;;;1.83;;
3034;SDS011;1527;48.836;9.172;2022-09-12T16:06:56;1.90;;;1.80;;
3034;SDS011;1527;48.836;9.172;2022-09-12T16:09:25;1.97;;;1.87;;
3034;SDS011;1527;48.836;9.172;2022-09-12T16:11:54;3.20;;;2.30;;
3034;SDS011;1527;48.836;9.172;2022-09-12T16:14:24;2.17;;;1.70;;
3034;SDS011;1527;48.836;9.172;2022-09-12T16:16:54;1.87;;;1.77;;
3034;SDS011;1527;48.836;9.172;2022-09-12T16:19:23;1.90;;;1.80;;
3034;SDS011;1527;48.836;9.172;2022-09-12T16:21:52;2.97;;;2.00;;
3034;SDS011;1527;48.836;9.172;2022-09-12T16:24:21;2.00;;;1.87;;
3034;SDS011;1527;48.836;9.172;2022-09-12T16:26:51;2.77;;;2.07;;
3034;SDS011;1527;48.836;9.172;2022-09-12T16:29:27;2.10;;;2.00;;
3034;SDS011;1527;48.836;9.172;2022-09-12T16:31:57;4.13;;;2.17;;